createdAt,value
2022-10-19T00:00:49.192Z,103058.34
2022-10-19T00:03:19.463Z,103057.59
2022-10-19T00:05:48.921Z,103063.84
2022-10-19T00:08:15.395Z,103063.97
2022-10-19T00:10:41.943Z,103059.56
2022-10-19T00:13:08.563Z,103058.69
2022-10-19T00:18:07.439Z,103047.16
2022-10-19T00:20:35.151Z,103054.38
2022-10-19T00:23:02.206Z,103045.59
2022-10-19T00:25:28.858Z,103047.38
2022-10-19T00:27:55.336Z,103054.59
2022-10-19T00:30:21.834Z,103051.91
2022-10-19T00:32:48.286Z,103047.50
2022-10-19T00:35:14.796Z,103050.19
2022-10-19T00:37:41.261Z,103038.72
2022-10-19T00:40:08.454Z,103043.19
2022-10-19T00:42:35.174Z,103039.66
2022-10-19T00:45:06.810Z,103038.78
2022-10-19T00:47:34.304Z,103035.38
2022-10-19T00:50:01.041Z,103031.84
2022-10-19T00:52:27.897Z,103039.91
2022-10-19T00:54:57.288Z,103033.75
2022-10-19T00:57:28.531Z,103039.13
2022-10-19T00:59:55.892Z,103042.06
2022-10-19T01:02:22.359Z,103040.22
2022-10-19T01:04:51.796Z,103043.88
2022-10-19T01:07:19.222Z,103038.63
2022-10-19T01:09:45.910Z,103043.16
2022-10-19T01:12:36.337Z,103042.38
2022-10-19T01:15:09.288Z,103034.31
2022-10-19T01:18:08.512Z,103028.94
2022-10-19T01:20:53.784Z,103024.53
2022-10-19T01:23:49.467Z,103022.81
2022-10-19T01:26:58.544Z,103030.13
2022-10-19T01:30:01.697Z,103029.28
2022-10-19T01:32:49.451Z,103021.22
2022-10-19T01:35:22.813Z,103029.41
2022-10-19T01:38:16.647Z,103030.34
2022-10-19T01:40:57.199Z,103021.53
2022-10-19T01:43:50.573Z,103028.75
2022-10-19T01:46:38.329Z,103026.94
2022-10-19T01:49:17.017Z,103026.16
2022-10-19T01:51:48.300Z,103011.84
2022-10-19T01:54:17.862Z,103032.53
2022-10-19T01:56:46.833Z,103026.28
2022-10-19T01:59:15.652Z,103028.22
2022-10-19T02:01:45.243Z,103025.53
2022-10-19T02:04:15.635Z,103015.75
2022-10-19T02:06:42.384Z,103022.09
2022-10-19T02:09:08.951Z,103011.47
2022-10-19T02:11:37.853Z,103013.19
2022-10-19T02:14:11.433Z,103009.72
2022-10-19T02:17:03.712Z,103017.91
2022-10-19T02:19:30.218Z,103011.56
2022-10-19T02:21:57.553Z,103008.13
2022-10-19T02:24:24.048Z,103016.19
2022-10-19T02:26:51.485Z,103007.34
2022-10-19T02:29:18.193Z,103013.56
2022-10-19T02:31:45.432Z,103008.31
2022-10-19T02:34:12.934Z,102996.78
2022-10-19T02:36:39.787Z,102995.94
2022-10-19T02:39:07.846Z,102995.06
2022-10-19T02:41:47.962Z,102995.19
2022-10-19T02:44:33.893Z,102986.38
2022-10-19T02:47:10.267Z,102989.91
2022-10-19T02:49:37.662Z,102991.75
2022-10-19T02:52:10.001Z,102990.03
2022-10-19T02:54:37.858Z,102982.81
2022-10-19T02:57:15.040Z,102986.59
2022-10-19T02:59:41.515Z,102985.63
2022-10-19T03:02:08.267Z,102981.19
2022-10-19T03:04:34.765Z,102986.69
2022-10-19T03:07:01.574Z,102987.56
2022-10-19T03:09:28.061Z,102991.22
2022-10-19T03:11:57.594Z,102992.22
2022-10-19T03:14:24.036Z,102993.28
2022-10-19T03:16:50.528Z,102991.44
2022-10-19T03:19:17.019Z,102987.03
2022-10-19T03:21:43.468Z,102982.63
2022-10-19T03:24:10.075Z,102979.09
2022-10-19T03:26:36.579Z,102974.66
2022-10-19T03:37:08.660Z,102966.84
2022-10-19T03:39:35.523Z,102962.41
2022-10-19T03:42:01.964Z,102966.94
2022-10-19T03:44:28.563Z,102964.38
2022-10-19T03:46:55.003Z,102962.53
2022-10-19T03:49:21.468Z,102968.03
2022-10-19T03:51:48.183Z,102964.47
2022-10-19T03:54:16.671Z,102968.97
2022-10-19T03:56:43.210Z,102963.72
2022-10-19T03:59:13.299Z,102958.34
2022-10-19T04:01:42.319Z,102969.09
2022-10-19T04:04:15.215Z,102966.53
2022-10-19T04:06:44.649Z,102979.97
2022-10-19T04:09:16.789Z,102964.78
2022-10-19T04:11:43.629Z,102979.09
2022-10-19T04:14:18.914Z,102977.38
2022-10-19T04:16:53.753Z,102975.66
2022-10-19T04:19:20.228Z,102972.22
2022-10-19T04:21:48.943Z,102970.50
2022-10-19T04:24:18.247Z,102974.16
2022-10-19T04:26:47.372Z,102976.00
2022-10-19T04:29:14.548Z,102970.63
2022-10-19T04:31:41.513Z,102970.72
2022-10-19T04:34:08.675Z,102976.94
2022-10-19T04:36:35.484Z,102977.06
2022-10-19T04:39:02.164Z,102969.97
2022-10-19T04:41:28.599Z,102956.53
2022-10-19T04:44:00.298Z,102961.91
2022-10-19T04:46:27.935Z,102970.06
2022-10-19T04:48:55.128Z,102965.66
2022-10-19T04:51:23.116Z,102966.66
2022-10-19T04:53:49.639Z,102960.41
2022-10-19T04:56:22.043Z,102963.97
2022-10-19T04:58:48.978Z,102956.88
2022-10-19T05:01:18.808Z,102950.66
2022-10-19T05:03:45.896Z,102960.63
2022-10-19T05:06:13.883Z,102958.91
2022-10-19T05:08:40.730Z,102960.75
2022-10-19T05:11:13.158Z,102966.13
2022-10-19T05:13:40.023Z,102959.00
2022-10-19T05:16:08.072Z,102959.97
2022-10-19T05:18:35.084Z,102951.91
2022-10-19T05:21:02.315Z,102950.22
2022-10-19T05:23:29.712Z,102955.59
2022-10-19T05:26:05.372Z,102955.72
2022-10-19T05:28:32.354Z,102950.34
2022-10-19T05:31:12.759Z,102947.72
2022-10-19T05:33:40.017Z,102939.66
2022-10-19T05:36:13.958Z,102946.03
2022-10-19T05:38:40.623Z,102943.34
2022-10-19T05:41:07.151Z,102951.50
2022-10-19T05:43:33.704Z,102947.94
2022-10-19T05:46:08.616Z,102941.72
2022-10-19T05:48:35.768Z,102934.63
2022-10-19T05:51:05.314Z,102940.13
2022-10-19T05:53:32.608Z,102934.75
2022-10-19T05:55:59.111Z,102940.97
2022-10-19T05:58:25.668Z,102938.38
2022-10-19T06:00:56.981Z,102947.31
2022-10-19T06:03:24.615Z,102942.91
2022-10-19T06:05:52.033Z,102934.97
2022-10-19T06:08:19.671Z,102936.78
2022-10-19T06:10:46.549Z,102938.63
2022-10-19T06:13:14.096Z,102935.94
2022-10-19T06:15:40.757Z,102948.47
2022-10-19T06:18:08.820Z,102954.75
2022-10-19T06:20:39.240Z,102944.94
2022-10-19T06:23:06.676Z,102939.69
2022-10-19T06:25:33.665Z,102933.44
2022-10-19T06:28:00.692Z,102940.66
2022-10-19T06:32:54.092Z,102942.50
2022-10-19T06:35:20.652Z,102941.59
2022-10-19T06:37:47.124Z,102942.56
2022-10-19T06:40:13.724Z,102943.44
2022-10-19T06:42:40.384Z,102938.19
2022-10-19T06:45:10.583Z,102938.06
2022-10-19T06:47:38.069Z,102945.06
2022-10-19T06:50:06.339Z,102945.59
2022-10-19T06:52:34.198Z,102936.25
2022-10-19T06:55:01.276Z,102937.50
2022-10-19T06:57:28.638Z,102926.13
2022-10-19T06:59:55.291Z,102941.56
2022-10-19T07:02:21.851Z,102936.50
2022-10-19T07:04:48.303Z,102939.50
2022-10-19T07:07:14.832Z,102948.72
2022-10-19T07:09:41.469Z,102941.81
2022-10-19T07:12:10.704Z,102943.84
2022-10-19T07:14:39.468Z,102930.69
2022-10-19T07:17:07.222Z,102933.75
2022-10-19T07:19:33.983Z,102934.03
2022-10-19T07:22:00.452Z,102934.47
2022-10-19T07:24:27.431Z,102933.25
2022-10-19T07:26:53.969Z,102939.13
2022-10-19T07:29:20.519Z,102926.44
2022-10-19T07:31:47.032Z,102926.44
2022-10-19T07:34:14.322Z,102934.50
2022-10-19T07:36:45.098Z,102938.28
2022-10-19T07:39:12.640Z,102923.25
2022-10-19T07:41:39.469Z,102919.91
2022-10-19T07:44:06.222Z,102926.50
2022-10-19T07:46:39.110Z,102927.72
2022-10-19T07:49:09.892Z,102930.63
2022-10-19T07:51:37.725Z,102941.75
2022-10-19T07:54:04.320Z,102950.88
2022-10-19T07:56:31.335Z,102947.56
2022-10-19T07:58:59.479Z,102954.91
2022-10-19T08:01:29.369Z,102950.59
2022-10-19T08:04:48.595Z,102949.00
2022-10-19T08:06:44.386Z,102943.72
2022-10-19T08:09:15.603Z,102954.63
2022-10-19T08:11:49.479Z,102949.47
2022-10-19T08:14:16.478Z,102948.69
2022-10-19T08:16:44.473Z,102954.19
2022-10-19T08:19:13.886Z,102952.59
2022-10-19T08:21:43.227Z,102950.84
2022-10-19T08:24:11.564Z,102945.59
2022-10-19T08:26:39.966Z,102945.59
2022-10-19T08:29:10.111Z,102930.53
2022-10-19T08:31:36.713Z,102931.50
2022-10-19T08:34:03.786Z,102923.53
2022-10-19T08:36:32.424Z,102924.41
2022-10-19T08:38:59.104Z,102928.03
2022-10-19T08:41:35.863Z,102924.50
2022-10-19T08:44:33.292Z,102921.81
2022-10-19T08:47:27.780Z,102914.72
2022-10-19T08:49:55.883Z,102912.66
2022-10-19T08:52:30.766Z,102899.22
2022-10-19T08:55:13.085Z,102901.78
2022-10-19T08:58:23.938Z,102892.84
2022-10-19T09:00:54.381Z,102893.50
2022-10-19T09:03:55.563Z,102895.34
2022-10-19T09:06:41.495Z,102896.84
2022-10-19T09:09:13.320Z,102887.72
2022-10-19T09:11:48.033Z,102891.97
2022-10-19T09:14:32.527Z,102894.31
2022-10-19T09:17:09.835Z,102892.25
2022-10-19T09:19:36.320Z,102876.75
2022-10-19T09:22:08.642Z,102863.91
2022-10-19T09:24:48.132Z,102853.78
2022-10-19T09:27:35.460Z,102865.91
2022-10-19T09:30:05.393Z,102873.41
2022-10-19T09:32:39.485Z,102875.72
2022-10-19T09:35:17.293Z,102873.56
2022-10-19T09:37:48.477Z,102866.00
2022-10-19T09:40:19.029Z,102860.38
2022-10-19T09:42:45.509Z,102860.97
2022-10-19T09:45:19.616Z,102866.03
2022-10-19T09:47:48.342Z,102864.91
2022-10-19T09:50:21.080Z,102858.31
2022-10-19T09:52:50.119Z,102859.91
2022-10-19T09:55:28.483Z,102864.22
2022-10-19T09:58:04.628Z,102869.34
2022-10-19T10:00:42.369Z,102869.09
2022-10-19T10:03:36.019Z,102872.56
2022-10-19T10:06:06.228Z,102865.97
2022-10-19T10:08:36.604Z,102872.94
2022-10-19T10:11:15.325Z,102871.00
2022-10-19T10:13:48.027Z,102867.19
2022-10-19T10:16:17.446Z,102867.94
2022-10-19T10:19:02.682Z,102855.31
2022-10-19T10:21:35.521Z,102850.69
2022-10-19T10:24:16.839Z,102838.91
2022-10-19T10:26:46.829Z,102840.47
2022-10-19T10:29:34.199Z,102843.06
2022-10-19T10:32:04.622Z,102834.00
2022-10-19T10:34:51.942Z,102829.47
2022-10-19T10:37:28.419Z,102824.69
2022-10-19T10:39:59.231Z,102820.16
2022-10-19T10:42:32.706Z,102817.47
2022-10-19T10:44:59.769Z,102819.16
2022-10-19T10:47:28.169Z,102820.91
2022-10-19T10:50:05.757Z,102810.97
2022-10-19T10:52:33.569Z,102814.53
2022-10-19T10:55:16.277Z,102808.16
2022-10-19T10:57:49.610Z,102811.69
2022-10-19T11:00:24.071Z,102799.97
2022-10-19T11:03:16.465Z,102798.13
2022-10-19T11:05:51.453Z,102781.81
2022-10-19T11:08:24.795Z,102784.38
2022-10-19T11:11:00.378Z,102778.13
2022-10-19T11:13:42.391Z,102772.63
2022-10-19T11:16:45.878Z,102763.69
2022-10-19T11:19:22.404Z,102749.09
2022-10-19T11:22:15.642Z,102748.22
2022-10-19T11:25:15.940Z,102736.47
2022-10-19T11:27:51.555Z,102736.34
2022-10-19T11:30:24.375Z,102729.84
2022-10-19T11:33:11.707Z,102737.91
2022-10-19T11:35:54.065Z,102729.84
2022-10-19T11:38:27.435Z,102727.03
2022-10-19T11:41:21.947Z,102729.72
2022-10-19T11:43:56.380Z,102720.50
2022-10-19T11:46:22.868Z,102704.34
2022-10-19T11:49:11.867Z,102698.84
2022-10-19T11:51:49.697Z,102688.75
2022-10-19T11:54:52.680Z,102690.59
2022-10-19T11:57:27.555Z,102690.38
2022-10-19T12:00:13.747Z,102676.75
2022-10-19T12:03:13.049Z,102680.28
2022-10-19T12:06:11.793Z,102667.56
2022-10-19T12:09:17.565Z,102655.78
2022-10-19T12:12:01.232Z,102650.28
2022-10-19T12:14:31.976Z,102656.38
2022-10-19T12:17:05.814Z,102653.53
2022-10-19T12:19:39.568Z,102647.19
2022-10-19T12:22:07.053Z,102634.41
2022-10-19T12:24:34.687Z,102637.84
2022-10-19T12:27:02.194Z,102628.75
2022-10-19T12:29:33.500Z,102621.53
2022-10-19T12:32:01.976Z,102619.69
2022-10-19T12:34:34.128Z,102612.31
2022-10-19T12:37:10.301Z,102612.19
2022-10-19T12:39:49.813Z,102609.22
2022-10-19T12:42:39.039Z,102600.03
2022-10-19T12:45:43.835Z,102594.50
2022-10-19T12:48:14.342Z,102588.84
2022-10-19T12:50:50.053Z,102577.94
2022-10-19T12:53:36.281Z,102576.84
2022-10-19T12:56:02.742Z,102567.59
2022-10-19T12:58:38.043Z,102566.63
2022-10-19T13:01:06.760Z,102568.19
2022-10-19T13:03:36.816Z,102559.09
2022-10-19T13:06:11.641Z,102553.59
2022-10-19T13:09:05.927Z,102560.69
2022-10-19T13:14:39.470Z,102550.47
2022-10-19T13:17:08.363Z,102546.66
2022-10-19T13:19:35.087Z,102543.81
2022-10-19T13:22:01.635Z,102540.13
2022-10-19T13:27:03.585Z,102544.41
2022-10-19T13:29:39.468Z,102545.25
2022-10-19T13:32:44.745Z,102538.03
2022-10-19T13:35:32.171Z,102538.03
2022-10-19T13:38:11.846Z,102541.44
2022-10-19T13:41:00.615Z,102538.75
2022-10-19T13:43:51.553Z,102529.66
2022-10-19T13:46:52.451Z,102525.25
2022-10-19T13:49:32.669Z,102522.41
2022-10-19T13:52:09.835Z,102518.72
2022-10-19T13:55:11.940Z,102523.25
2022-10-19T13:58:13.943Z,102519.56
2022-10-19T14:01:11.794Z,102516.88
2022-10-19T14:03:56.448Z,102518.59
2022-10-19T14:06:32.858Z,102524.00
2022-10-19T14:09:17.469Z,102518.59
2022-10-19T14:11:47.554Z,102524.00
2022-10-19T14:14:23.002Z,102516.75
2022-10-19T14:16:49.479Z,102511.34
2022-10-19T14:19:27.322Z,102512.34
2022-10-19T14:21:56.396Z,102504.09
2022-10-19T14:24:35.059Z,102508.66
2022-10-19T14:27:06.447Z,102500.56
2022-10-19T14:29:44.694Z,102497.00
2022-10-19T14:32:12.013Z,102496.00
2022-10-19T14:34:47.262Z,102497.84
2022-10-19T14:37:20.213Z,102494.16
2022-10-19T14:40:01.733Z,102487.91
2022-10-19T14:42:46.313Z,102484.38
2022-10-19T14:45:25.499Z,102480.81
2022-10-19T14:48:06.736Z,102476.38
2022-10-19T14:50:49.109Z,102478.13
2022-10-19T14:53:34.326Z,102477.13
2022-10-19T14:56:09.954Z,102466.47
2022-10-19T14:58:41.634Z,102468.28
2022-10-19T15:01:10.189Z,102465.59
2022-10-19T15:03:40.209Z,102463.78
2022-10-19T15:06:30.228Z,102460.34
2022-10-19T15:09:12.196Z,102459.50
2022-10-19T15:11:47.061Z,102444.31
2022-10-19T15:14:16.771Z,102434.47
2022-10-19T15:16:49.349Z,102435.47
2022-10-19T15:19:27.827Z,102423.00
2022-10-19T15:22:09.452Z,102422.16
2022-10-19T15:24:36.674Z,102414.06
2022-10-19T15:27:45.469Z,102424.25
2022-10-19T15:30:17.849Z,102426.97
2022-10-19T15:32:55.236Z,102422.56
2022-10-19T15:35:29.320Z,102418.28
2022-10-19T15:38:16.930Z,102413.03
2022-10-19T15:40:45.940Z,102406.91
2022-10-19T15:43:30.639Z,102411.59
2022-10-19T15:46:12.227Z,102406.34
2022-10-19T15:48:41.866Z,102406.47
2022-10-19T15:51:28.999Z,102406.75
2022-10-19T15:54:00.844Z,102399.50
2022-10-19T15:56:31.060Z,102400.66
2022-10-19T15:58:59.838Z,102397.06
2022-10-19T16:01:33.581Z,102390.97
2022-10-19T16:04:01.036Z,102387.41
2022-10-19T16:06:32.919Z,102370.66
2022-10-19T16:09:00.480Z,102363.66
2022-10-19T16:11:28.913Z,102363.56
2022-10-19T16:13:55.476Z,102361.72
2022-10-19T16:16:29.377Z,102359.84
2022-10-19T16:18:56.456Z,102365.94
2022-10-19T16:21:27.003Z,102360.56
2022-10-19T16:23:53.693Z,102365.09
2022-10-19T16:26:21.049Z,102353.72
2022-10-19T16:28:48.694Z,102370.91
2022-10-19T16:31:15.707Z,102361.25
2022-10-19T16:33:42.184Z,102365.94
2022-10-19T16:36:09.819Z,102367.91
2022-10-19T16:38:37.218Z,102355.31
2022-10-19T16:41:06.585Z,102355.31
2022-10-19T16:43:33.692Z,102342.94
2022-10-19T16:46:00.749Z,102339.25
2022-10-19T16:48:27.304Z,102336.13
2022-10-19T16:51:05.690Z,102338.13
2022-10-19T16:53:33.034Z,102336.78
2022-10-19T16:56:12.334Z,102324.56
2022-10-19T16:58:40.272Z,102327.56
2022-10-19T17:01:15.863Z,102321.75
2022-10-19T17:03:43.586Z,102317.50
2022-10-19T17:06:10.738Z,102308.97
2022-10-19T17:09:02.707Z,102305.69
2022-10-19T17:11:32.815Z,102307.81
2022-10-19T17:14:02.703Z,102302.00
2022-10-19T17:16:31.559Z,102302.28
2022-10-19T17:18:59.854Z,102292.06
2022-10-19T17:21:29.012Z,102296.16
2022-10-19T17:23:58.409Z,102305.69
2022-10-19T17:26:32.477Z,102297.28
2022-10-19T17:29:00.292Z,102297.00
2022-10-19T17:31:27.419Z,102301.25
2022-10-19T17:33:54.295Z,102292.16
2022-10-19T17:36:27.292Z,102297.41
2022-10-19T17:38:54.802Z,102297.28
2022-10-19T17:41:22.199Z,102293.59
2022-10-19T17:43:51.670Z,102292.72
2022-10-19T17:46:21.021Z,102289.28
2022-10-19T17:48:47.578Z,102290.31
2022-10-19T17:51:17.073Z,102295.13
2022-10-19T17:53:45.783Z,102289.91
2022-10-19T17:56:14.871Z,102302.09
2022-10-19T17:58:41.826Z,102299.00
2022-10-19T18:01:09.545Z,102296.72
2022-10-19T18:03:37.352Z,102301.84
2022-10-19T18:06:10.842Z,102303.13
2022-10-19T18:08:43.245Z,102312.66
2022-10-19T18:11:19.013Z,102313.94
2022-10-19T18:13:45.929Z,102316.06
2022-10-19T18:16:18.538Z,102321.88
2022-10-19T18:18:50.819Z,102313.38
2022-10-19T18:21:20.845Z,102318.19
2022-10-19T18:23:48.402Z,102320.31
2022-10-19T18:26:19.643Z,102313.50
2022-10-19T18:28:46.527Z,102306.53
2022-10-19T18:31:22.601Z,102297.84
2022-10-19T18:33:54.863Z,102290.91
2022-10-19T18:36:21.742Z,102286.66
2022-10-19T18:38:52.067Z,102280.66
2022-10-19T18:41:19.023Z,102269.16
2022-10-19T18:43:51.355Z,102256.06
2022-10-19T18:46:20.448Z,102257.91
2022-10-19T18:48:47.489Z,102255.53
2022-10-19T18:51:17.440Z,102262.03
2022-10-19T18:53:44.921Z,102266.72
2022-10-19T18:56:13.654Z,102265.00
2022-10-19T18:58:40.232Z,102259.78
2022-10-19T19:01:14.334Z,102251.09
2022-10-19T19:03:43.517Z,102241.44
2022-10-19T19:06:16.234Z,102241.59
2022-10-19T19:11:18.992Z,102236.63
2022-10-19T19:13:51.030Z,102233.09
2022-10-19T19:16:17.770Z,102227.13
2022-10-19T19:18:44.478Z,102225.41
2022-10-19T19:21:21.203Z,102220.16
2022-10-19T19:23:48.893Z,102210.50
2022-10-19T19:26:16.209Z,102195.47
2022-10-19T19:28:44.347Z,102194.75
2022-10-19T19:31:15.822Z,102184.09
2022-10-19T19:33:43.582Z,102171.63
2022-10-19T19:36:12.598Z,102160.13
2022-10-19T19:38:39.424Z,102156.75
2022-10-19T19:41:08.558Z,102154.31
2022-10-19T19:43:39.697Z,102146.22
2022-10-19T19:46:09.450Z,102139.25
2022-10-19T19:48:36.987Z,102143.81
2022-10-19T19:51:03.953Z,102154.84
2022-10-19T19:53:30.690Z,102139.69
2022-10-19T19:55:57.209Z,102133.59
2022-10-19T19:58:23.764Z,102134.56
2022-10-19T20:00:50.235Z,102126.50
2022-10-19T20:03:16.807Z,102127.63
2022-10-19T20:05:43.387Z,102120.69
2022-10-19T20:08:10.196Z,102128.75
2022-10-19T20:10:42.143Z,102124.53
2022-10-19T20:13:09.024Z,102122.78
2022-10-19T20:15:38.976Z,102114.03
2022-10-19T20:18:06.276Z,102111.44
2022-10-19T20:20:32.882Z,102108.91
2022-10-19T20:22:59.387Z,102099.13
2022-10-19T20:25:25.987Z,102094.84
2022-10-19T20:27:52.455Z,102088.59
2022-10-19T20:30:18.990Z,102081.50
2022-10-19T20:32:45.502Z,102087.03
2022-10-19T20:35:11.986Z,102085.31
2022-10-19T20:37:38.598Z,102080.09
2022-10-19T20:40:08.497Z,102084.63
2022-10-19T20:42:35.841Z,102072.97
2022-10-19T20:45:02.761Z,102073.13
2022-10-19T20:47:29.824Z,102067.03
2022-10-19T20:49:56.394Z,102072.44
2022-10-19T20:52:22.986Z,102078.78
2022-10-19T20:54:49.497Z,102081.47
2022-10-19T20:57:16.042Z,102078.94
2022-10-19T20:59:44.001Z,102074.53
2022-10-19T21:02:11.306Z,102073.81
2022-10-19T21:04:37.953Z,102076.50
2022-10-19T21:07:05.081Z,102067.75
2022-10-19T21:09:31.827Z,102061.50
2022-10-19T21:11:58.748Z,102068.72
2022-10-19T21:14:28.737Z,102071.53
2022-10-19T21:16:57.392Z,102070.69
2022-10-19T21:19:26.485Z,102076.22
2022-10-19T21:21:56.881Z,102078.94
2022-10-19T21:24:26.366Z,102070.13
2022-10-19T21:26:53.043Z,102059.50
2022-10-19T21:29:19.686Z,102070.28
2022-10-19T21:31:49.091Z,102073.09
2022-10-19T21:34:30.102Z,102068.84
2022-10-19T21:36:57.120Z,102062.47
2022-10-19T21:39:23.701Z,102064.31
2022-10-19T21:41:50.316Z,102063.47
2022-10-19T21:44:18.127Z,102054.66
2022-10-19T21:46:47.529Z,102054.66
2022-10-19T21:49:14.385Z,102052.97
2022-10-19T21:51:49.740Z,102057.50
2022-10-19T21:54:18.695Z,102061.16
2022-10-19T21:56:45.815Z,102046.84
2022-10-19T21:59:12.996Z,102033.53
2022-10-19T22:01:41.250Z,102037.22
2022-10-19T22:04:13.661Z,102031.00
2022-10-19T22:06:40.892Z,102031.13
2022-10-19T22:09:09.673Z,102038.34
2022-10-19T22:11:36.257Z,102033.13
2022-10-19T22:14:04.344Z,102029.56
2022-10-19T22:16:32.515Z,102030.53
2022-10-19T22:18:59.160Z,102018.94
2022-10-19T22:21:28.299Z,102022.63
2022-10-19T22:23:57.304Z,102002.94
2022-10-19T22:26:29.857Z,101998.56
2022-10-19T22:28:58.150Z,101997.66
2022-10-19T22:31:26.459Z,101994.13
2022-10-19T22:33:53.243Z,101990.75
2022-10-19T22:36:20.036Z,101980.97
2022-10-19T22:38:46.480Z,101965.78
2022-10-19T22:42:09.227Z,101962.41
2022-10-19T22:44:35.759Z,101965.09
2022-10-19T22:47:02.202Z,101961.69
2022-10-19T22:49:28.778Z,101957.31
2022-10-19T22:51:55.265Z,101965.53
2022-10-19T22:54:21.740Z,101959.25
2022-10-19T22:56:48.252Z,101947.66
2022-10-19T22:59:14.795Z,101942.41
2022-10-19T23:01:41.451Z,101945.25
2022-10-19T23:04:08.044Z,101947.06
2022-10-19T23:06:34.583Z,101936.31
2022-10-19T23:09:01.130Z,101928.53
2022-10-19T23:11:27.631Z,101932.94
2022-10-19T23:13:54.112Z,101921.31
2022-10-19T23:16:20.732Z,101916.94
2022-10-19T23:18:47.276Z,101908.88
2022-10-19T23:21:14.308Z,101910.69
2022-10-19T23:23:41.136Z,101910.81
2022-10-19T23:26:10.961Z,101911.69
2022-10-19T23:28:39.671Z,101911.81
2022-10-19T23:31:14.948Z,101903.88
2022-10-19T23:33:42.936Z,101901.19
2022-10-19T23:36:15.263Z,101900.34
2022-10-19T23:38:43.740Z,101891.44
2022-10-19T23:41:10.868Z,101887.03
2022-10-19T23:43:37.526Z,101892.41
2022-10-19T23:46:04.157Z,101889.88
2022-10-19T23:48:30.763Z,101882.78
2022-10-19T23:51:02.945Z,101877.41
2022-10-19T23:53:31.965Z,101871.16
2022-10-19T23:56:05.319Z,101871.16
2022-10-19T23:58:31.980Z,101867.63
